
<gpx xmlns="http://www.topografix.com/GPX/1/1" xmlns:gpxx="http://www.garmin.com/xmlschemas/GpxExtensions/v3" xmlns:xsi="http://www.w3.org/2001/XMLSchema-instance" version="1.1" creator="Adze - https://getadze.com/" xsi:schemaLocation="http://www.topografix.com/GPX/1/1 http://www.topografix.com/GPX/1/1/gpx.xsd http://www.garmin.com/xmlschemas/GpxExtensions/v3 http://www.garmin.com/xmlschemas/GpxExtensionsv3.xsd">
    <metadata>
        <name>Untitled Document</name>
        <link href="http://www.garmin.com"></link>
        <time>2018-03-08T10:51:46.608Z</time>
    </metadata>
    <wpt lon="101.188145" lat="14.332587">
        <ele>65.000000</ele>
        <name>Wangree Resort</name>
        <cmt>29-JUL-11 15:03:35</cmt>
        <desc>29-JUL-11 15:03:35</desc>
        <sym>Lodging</sym>
        <extensions>
            <gpxx:WaypointExtension xmlns:gpxx="http://www.garmin.com/xmlschemas/GpxExtensions/v3">
                <gpxx:DisplayMode>SymbolOnly</gpxx:DisplayMode>
            </gpxx:WaypointExtension>
        </extensions>
    </wpt>
    <wpt lon="101.175186" lat="14.292627">
        <ele>22.000000</ele>
        <name>July 2011 - Saturday water</name>
        <cmt>30-JUL-11 14:42:56</cmt>
        <desc>30-JUL-11 14:42:56</desc>
        <sym>Drinking Water</sym>
        <extensions>
            <gpxx:WaypointExtension xmlns:gpxx="http://www.garmin.com/xmlschemas/GpxExtensions/v3">
                <gpxx:DisplayMode>SymbolOnly</gpxx:DisplayMode>
            </gpxx:WaypointExtension>
        </extensions>
    </wpt>
    <trk>
        <name>July 2011 - Saturday</name>
        <extensions>
            <gpxx:TrackExtension xmlns:gpxx="http://www.garmin.com/xmlschemas/GpxExtensions/v3">
                <gpxx:DisplayColor>Red</gpxx:DisplayColor>
            </gpxx:TrackExtension>
        </extensions>
        <trkseg>
            <trkpt lon="101.188931" lat="14.332731">
                <ele>69.832886</ele>
                <time>2011-07-30T06:07:39Z</time>
            </trkpt>
            <trkpt lon="101.189017" lat="14.332916">
                <ele>69.832886</ele>
                <time>2011-07-30T06:07:54Z</time>
            </trkpt>
            <trkpt lon="101.190017" lat="14.333212">
                <ele>68.390869</ele>
                <time>2011-07-30T06:08:20Z</time>
            </trkpt>
            <trkpt lon="101.190362" lat="14.333548">
                <ele>67.910278</ele>
                <time>2011-07-30T06:08:34Z</time>
            </trkpt>
            <trkpt lon="101.191708" lat="14.331687">
                <ele>65.987671</ele>
                <time>2011-07-30T06:09:31Z</time>
            </trkpt>
            <trkpt lon="101.191789" lat="14.331440">
                <ele>65.026367</ele>
                <time>2011-07-30T06:09:40Z</time>
            </trkpt>
            <trkpt lon="101.191665" lat="14.331348">
                <ele>65.026367</ele>
                <time>2011-07-30T06:09:45Z</time>
            </trkpt>
            <trkpt lon="101.190889" lat="14.331099">
                <ele>65.987671</ele>
                <time>2011-07-30T06:10:10Z</time>
            </trkpt>
            <trkpt lon="101.191192" lat="14.330554">
                <ele>63.584351</ele>
                <time>2011-07-30T06:10:38Z</time>
            </trkpt>
            <trkpt lon="101.191781" lat="14.330657">
                <ele>64.545654</ele>
                <time>2011-07-30T06:11:50Z</time>
            </trkpt>
            <trkpt lon="101.192010" lat="14.330819">
                <ele>63.103638</ele>
                <time>2011-07-30T06:12:55Z</time>
            </trkpt>
            <trkpt lon="101.191254" lat="14.330507">
                <ele>62.622925</ele>
                <time>2011-07-30T06:15:32Z</time>
            </trkpt>
            <trkpt lon="101.191202" lat="14.330460">
                <ele>62.142334</ele>
                <time>2011-07-30T06:15:41Z</time>
            </trkpt>
            <trkpt lon="101.191281" lat="14.329975">
                <ele>62.142334</ele>
                <time>2011-07-30T06:16:11Z</time>
            </trkpt>
            <trkpt lon="101.191160" lat="14.329757">
                <ele>62.142334</ele>
                <time>2011-07-30T06:16:20Z</time>
            </trkpt>
            <trkpt lon="101.190385" lat="14.329401">
                <ele>63.584351</ele>
                <time>2011-07-30T06:16:42Z</time>
            </trkpt>
            <trkpt lon="101.190331" lat="14.329204">
                <ele>63.584351</ele>
                <time>2011-07-30T06:16:48Z</time>
            </trkpt>
            <trkpt lon="101.190820" lat="14.328019">
                <ele>60.700317</ele>
                <time>2011-07-30T06:21:44Z</time>
            </trkpt>
            <trkpt lon="101.190928" lat="14.327939">
                <ele>59.739136</ele>
                <time>2011-07-30T06:22:51Z</time>
            </trkpt>
            <trkpt lon="101.191392" lat="14.328089">
                <ele>60.219727</ele>
                <time>2011-07-30T06:26:54Z</time>
            </trkpt>
            <trkpt lon="101.191433" lat="14.327928">
                <ele>59.258423</ele>
                <time>2011-07-30T06:27:02Z</time>
            </trkpt>
            <trkpt lon="101.191333" lat="14.327280">
                <ele>59.258423</ele>
                <time>2011-07-30T06:27:18Z</time>
            </trkpt>
            <trkpt lon="101.191033" lat="14.326886">
                <ele>58.297119</ele>
                <time>2011-07-30T06:27:28Z</time>
            </trkpt>
            <trkpt lon="101.190694" lat="14.326650">
                <ele>58.777710</ele>
                <time>2011-07-30T06:27:37Z</time>
            </trkpt>
            <trkpt lon="101.190562" lat="14.326513">
                <ele>58.297119</ele>
                <time>2011-07-30T06:27:42Z</time>
            </trkpt>
            <trkpt lon="101.191189" lat="14.326035">
                <ele>57.816528</ele>
                <time>2011-07-30T06:28:04Z</time>
            </trkpt>
            <trkpt lon="101.191345" lat="14.325720">
                <ele>58.297119</ele>
                <time>2011-07-30T06:28:12Z</time>
            </trkpt>
            <trkpt lon="101.191491" lat="14.325371">
                <ele>57.816528</ele>
                <time>2011-07-30T06:28:22Z</time>
            </trkpt>
            <trkpt lon="101.191210" lat="14.325182">
                <ele>58.297119</ele>
                <time>2011-07-30T06:28:38Z</time>
            </trkpt>
            <trkpt lon="101.191468" lat="14.324509">
                <ele>57.816528</ele>
                <time>2011-07-30T06:29:20Z</time>
            </trkpt>
            <trkpt lon="101.191293" lat="14.324482">
                <ele>56.374512</ele>
                <time>2011-07-30T06:29:29Z</time>
            </trkpt>
            <trkpt lon="101.191004" lat="14.323810">
                <ele>58.297119</ele>
                <time>2011-07-30T06:30:00Z</time>
            </trkpt>
            <trkpt lon="101.190900" lat="14.323489">
                <ele>57.816528</ele>
                <time>2011-07-30T06:30:09Z</time>
            </trkpt>
            <trkpt lon="101.191345" lat="14.323159">
                <ele>56.374512</ele>
                <time>2011-07-30T06:30:22Z</time>
            </trkpt>
            <trkpt lon="101.191468" lat="14.322864">
                <ele>56.374512</ele>
                <time>2011-07-30T06:30:28Z</time>
            </trkpt>
            <trkpt lon="101.191308" lat="14.322568">
                <ele>56.374512</ele>
                <time>2011-07-30T06:30:34Z</time>
            </trkpt>
            <trkpt lon="101.191698" lat="14.321779">
                <ele>57.335815</ele>
                <time>2011-07-30T06:30:50Z</time>
            </trkpt>
            <trkpt lon="101.191413" lat="14.321120">
                <ele>60.219727</ele>
                <time>2011-07-30T06:31:05Z</time>
            </trkpt>
            <trkpt lon="101.192399" lat="14.321532">
                <ele>58.297119</ele>
                <time>2011-07-30T06:31:26Z</time>
            </trkpt>
            <trkpt lon="101.193136" lat="14.322404">
                <ele>57.816528</ele>
                <time>2011-07-30T06:31:46Z</time>
            </trkpt>
            <trkpt lon="101.193617" lat="14.322603">
                <ele>58.777710</ele>
                <time>2011-07-30T06:31:55Z</time>
            </trkpt>
            <trkpt lon="101.194080" lat="14.322527">
                <ele>60.219727</ele>
                <time>2011-07-30T06:32:06Z</time>
            </trkpt>
            <trkpt lon="101.194484" lat="14.322025">
                <ele>58.297119</ele>
                <time>2011-07-30T06:32:18Z</time>
            </trkpt>
            <trkpt lon="101.195576" lat="14.321672">
                <ele>59.739136</ele>
                <time>2011-07-30T06:32:36Z</time>
            </trkpt>
            <trkpt lon="101.195951" lat="14.321478">
                <ele>60.219727</ele>
                <time>2011-07-30T06:32:43Z</time>
            </trkpt>
            <trkpt lon="101.196026" lat="14.321304">
                <ele>60.219727</ele>
                <time>2011-07-30T06:32:47Z</time>
            </trkpt>
            <trkpt lon="101.195256" lat="14.319045">
                <ele>53.971191</ele>
                <time>2011-07-30T06:33:21Z</time>
            </trkpt>
            <trkpt lon="101.194995" lat="14.318606">
                <ele>53.490479</ele>
                <time>2011-07-30T06:33:28Z</time>
            </trkpt>
            <trkpt lon="101.195007" lat="14.317880">
                <ele>53.971191</ele>
                <time>2011-07-30T06:33:40Z</time>
            </trkpt>
            <trkpt lon="101.194954" lat="14.316271">
                <ele>51.567871</ele>
                <time>2011-07-30T06:34:15Z</time>
            </trkpt>
            <trkpt lon="101.194840" lat="14.315540">
                <ele>51.087158</ele>
                <time>2011-07-30T06:34:26Z</time>
            </trkpt>
            <trkpt lon="101.195454" lat="14.314530">
                <ele>51.087158</ele>
                <time>2011-07-30T06:34:45Z</time>
            </trkpt>
            <trkpt lon="101.196286" lat="14.313396">
                <ele>48.683960</ele>
                <time>2011-07-30T06:35:11Z</time>
            </trkpt>
            <trkpt lon="101.196600" lat="14.313215">
                <ele>49.164551</ele>
                <time>2011-07-30T06:35:23Z</time>
            </trkpt>
            <trkpt lon="101.197211" lat="14.312878">
                <ele>46.761231</ele>
                <time>2011-07-30T06:36:25Z</time>
            </trkpt>
            <trkpt lon="101.198308" lat="14.310985">
                <ele>45.799927</ele>
                <time>2011-07-30T06:37:24Z</time>
            </trkpt>
            <trkpt lon="101.198374" lat="14.310777">
                <ele>45.319214</ele>
                <time>2011-07-30T06:37:28Z</time>
            </trkpt>
            <trkpt lon="101.198174" lat="14.309858">
                <ele>44.838623</ele>
                <time>2011-07-30T06:37:53Z</time>
            </trkpt>
            <trkpt lon="101.198494" lat="14.308937">
                <ele>43.396606</ele>
                <time>2011-07-30T06:38:16Z</time>
            </trkpt>
            <trkpt lon="101.198477" lat="14.307952">
                <ele>44.838623</ele>
                <time>2011-07-30T06:38:37Z</time>
            </trkpt>
            <trkpt lon="101.198171" lat="14.307778">
                <ele>43.877319</ele>
                <time>2011-07-30T06:38:45Z</time>
            </trkpt>
            <trkpt lon="101.197932" lat="14.307832">
                <ele>44.358032</ele>
                <time>2011-07-30T06:38:50Z</time>
            </trkpt>
            <trkpt lon="101.195850" lat="14.310271">
                <ele>44.838623</ele>
                <time>2011-07-30T06:39:49Z</time>
            </trkpt>
            <trkpt lon="101.195006" lat="14.310665">
                <ele>48.683960</ele>
                <time>2011-07-30T06:40:09Z</time>
            </trkpt>
            <trkpt lon="101.194902" lat="14.310288">
                <ele>48.683960</ele>
                <time>2011-07-30T06:40:24Z</time>
            </trkpt>
            <trkpt lon="101.194995" lat="14.309304">
                <ele>50.125977</ele>
                <time>2011-07-30T06:40:55Z</time>
            </trkpt>
            <trkpt lon="101.194033" lat="14.308118">
                <ele>49.645264</ele>
                <time>2011-07-30T06:42:04Z</time>
            </trkpt>
            <trkpt lon="101.194104" lat="14.307811">
                <ele>54.451782</ele>
                <time>2011-07-30T06:42:31Z</time>
            </trkpt>
            <trkpt lon="101.194147" lat="14.307709">
                <ele>53.971191</ele>
                <time>2011-07-30T06:42:44Z</time>
            </trkpt>
            <trkpt lon="101.194354" lat="14.307390">
                <ele>57.816528</ele>
                <time>2011-07-30T06:43:30Z</time>
            </trkpt>
            <trkpt lon="101.194517" lat="14.307175">
                <ele>56.855103</ele>
                <time>2011-07-30T06:44:18Z</time>
            </trkpt>
            <trkpt lon="101.194840" lat="14.307034">
                <ele>48.683960</ele>
                <time>2011-07-30T06:45:06Z</time>
            </trkpt>
            <trkpt lon="101.194976" lat="14.306799">
                <ele>49.164551</ele>
                <time>2011-07-30T06:45:52Z</time>
            </trkpt>
            <trkpt lon="101.195318" lat="14.306668">
                <ele>47.241821</ele>
                <time>2011-07-30T06:46:42Z</time>
            </trkpt>
            <trkpt lon="101.195712" lat="14.306165">
                <ele>48.203369</ele>
                <time>2011-07-30T06:47:28Z</time>
            </trkpt>
            <trkpt lon="101.195782" lat="14.306026">
                <ele>46.761231</ele>
                <time>2011-07-30T06:47:39Z</time>
            </trkpt>
            <trkpt lon="101.195773" lat="14.305473">
                <ele>46.761231</ele>
                <time>2011-07-30T06:48:12Z</time>
            </trkpt>
            <trkpt lon="101.195284" lat="14.305403">
                <ele>50.125977</ele>
                <time>2011-07-30T06:48:44Z</time>
            </trkpt>
            <trkpt lon="101.194803" lat="14.305115">
                <ele>54.932373</ele>
                <time>2011-07-30T06:50:50Z</time>
            </trkpt>
            <trkpt lon="101.195754" lat="14.305447">
                <ele>47.241821</ele>
                <time>2011-07-30T06:51:39Z</time>
            </trkpt>
            <trkpt lon="101.198277" lat="14.305434">
                <ele>41.473999</ele>
                <time>2011-07-30T06:54:01Z</time>
            </trkpt>
            <trkpt lon="101.198523" lat="14.304026">
                <ele>45.799927</ele>
                <time>2011-07-30T06:54:58Z</time>
            </trkpt>
            <trkpt lon="101.198747" lat="14.303874">
                <ele>45.799927</ele>
                <time>2011-07-30T06:55:07Z</time>
            </trkpt>
            <trkpt lon="101.201473" lat="14.302725">
                <ele>38.590088</ele>
                <time>2011-07-30T06:56:00Z</time>
            </trkpt>
            <trkpt lon="101.202512" lat="14.302680">
                <ele>36.186768</ele>
                <time>2011-07-30T06:56:15Z</time>
            </trkpt>
            <trkpt lon="101.204963" lat="14.301955">
                <ele>36.186768</ele>
                <time>2011-07-30T06:56:56Z</time>
            </trkpt>
            <trkpt lon="101.205402" lat="14.301693">
                <ele>34.744873</ele>
                <time>2011-07-30T06:57:06Z</time>
            </trkpt>
            <trkpt lon="101.207047" lat="14.300278">
                <ele>35.225464</ele>
                <time>2011-07-30T06:57:53Z</time>
            </trkpt>
            <trkpt lon="101.205766" lat="14.301310">
                <ele>33.783447</ele>
                <time>2011-07-30T06:58:43Z</time>
            </trkpt>
            <trkpt lon="101.205405" lat="14.301080">
                <ele>34.744873</ele>
                <time>2011-07-30T06:58:57Z</time>
            </trkpt>
            <trkpt lon="101.205337" lat="14.300890">
                <ele>35.225464</ele>
                <time>2011-07-30T06:59:03Z</time>
            </trkpt>
            <trkpt lon="101.205402" lat="14.300717">
                <ele>34.264160</ele>
                <time>2011-07-30T06:59:08Z</time>
            </trkpt>
            <trkpt lon="101.205191" lat="14.300502">
                <ele>34.744873</ele>
                <time>2011-07-30T06:59:16Z</time>
            </trkpt>
            <trkpt lon="101.205043" lat="14.299958">
                <ele>34.264160</ele>
                <time>2011-07-30T06:59:28Z</time>
            </trkpt>
            <trkpt lon="101.205415" lat="14.298793">
                <ele>33.302856</ele>
                <time>2011-07-30T06:59:53Z</time>
            </trkpt>
            <trkpt lon="101.205795" lat="14.298514">
                <ele>33.783447</ele>
                <time>2011-07-30T07:00:03Z</time>
            </trkpt>
            <trkpt lon="101.206006" lat="14.298620">
                <ele>33.302856</ele>
                <time>2011-07-30T07:00:08Z</time>
            </trkpt>
            <trkpt lon="101.206212" lat="14.298526">
                <ele>34.744873</ele>
                <time>2011-07-30T07:00:15Z</time>
            </trkpt>
            <trkpt lon="101.206386" lat="14.298363">
                <ele>34.264160</ele>
                <time>2011-07-30T07:00:22Z</time>
            </trkpt>
            <trkpt lon="101.206894" lat="14.298561">
                <ele>33.783447</ele>
                <time>2011-07-30T07:00:33Z</time>
            </trkpt>
            <trkpt lon="101.207274" lat="14.298399">
                <ele>34.264160</ele>
                <time>2011-07-30T07:00:42Z</time>
            </trkpt>
            <trkpt lon="101.207324" lat="14.297006">
                <ele>34.264160</ele>
                <time>2011-07-30T07:01:10Z</time>
            </trkpt>
            <trkpt lon="101.207313" lat="14.296864">
                <ele>33.302856</ele>
                <time>2011-07-30T07:01:14Z</time>
            </trkpt>
            <trkpt lon="101.206785" lat="14.295815">
                <ele>32.822266</ele>
                <time>2011-07-30T07:01:35Z</time>
            </trkpt>
            <trkpt lon="101.206672" lat="14.295107">
                <ele>33.302856</ele>
                <time>2011-07-30T07:01:47Z</time>
            </trkpt>
            <trkpt lon="101.206565" lat="14.294760">
                <ele>30.899536</ele>
                <time>2011-07-30T07:01:53Z</time>
            </trkpt>
            <trkpt lon="101.206635" lat="14.293396">
                <ele>31.380127</ele>
                <time>2011-07-30T07:02:16Z</time>
            </trkpt>
            <trkpt lon="101.205898" lat="14.292659">
                <ele>31.380127</ele>
                <time>2011-07-30T07:02:36Z</time>
            </trkpt>
            <trkpt lon="101.205605" lat="14.292167">
                <ele>30.418823</ele>
                <time>2011-07-30T07:02:48Z</time>
            </trkpt>
            <trkpt lon="101.204881" lat="14.292067">
                <ele>31.860718</ele>
                <time>2011-07-30T07:03:03Z</time>
            </trkpt>
            <trkpt lon="101.204296" lat="14.291113">
                <ele>31.380127</ele>
                <time>2011-07-30T07:03:25Z</time>
            </trkpt>
            <trkpt lon="101.203186" lat="14.289051">
                <ele>33.302856</ele>
                <time>2011-07-30T07:04:15Z</time>
            </trkpt>
            <trkpt lon="101.203187" lat="14.287570">
                <ele>36.667481</ele>
                <time>2011-07-30T07:04:51Z</time>
            </trkpt>
            <trkpt lon="101.201948" lat="14.287445">
                <ele>39.070679</ele>
                <time>2011-07-30T07:05:36Z</time>
            </trkpt>
            <trkpt lon="101.199799" lat="14.287714">
                <ele>44.358032</ele>
                <time>2011-07-30T07:06:38Z</time>
            </trkpt>
            <trkpt lon="101.198660" lat="14.287699">
                <ele>46.761231</ele>
                <time>2011-07-30T07:07:08Z</time>
            </trkpt>
            <trkpt lon="101.198331" lat="14.287607">
                <ele>46.761231</ele>
                <time>2011-07-30T07:07:18Z</time>
            </trkpt>
            <trkpt lon="101.197858" lat="14.287184">
                <ele>47.722534</ele>
                <time>2011-07-30T07:07:35Z</time>
            </trkpt>
            <trkpt lon="101.196957" lat="14.286878">
                <ele>47.241821</ele>
                <time>2011-07-30T07:07:58Z</time>
            </trkpt>
            <trkpt lon="101.195198" lat="14.287076">
                <ele>47.722534</ele>
                <time>2011-07-30T07:08:35Z</time>
            </trkpt>
            <trkpt lon="101.194895" lat="14.287040">
                <ele>47.241821</ele>
                <time>2011-07-30T07:08:41Z</time>
            </trkpt>
            <trkpt lon="101.194157" lat="14.286563">
                <ele>48.683960</ele>
                <time>2011-07-30T07:08:57Z</time>
            </trkpt>
            <trkpt lon="101.192848" lat="14.286410">
                <ele>51.087158</ele>
                <time>2011-07-30T07:09:24Z</time>
            </trkpt>
            <trkpt lon="101.191940" lat="14.286509">
                <ele>47.722534</ele>
                <time>2011-07-30T07:09:40Z</time>
            </trkpt>
            <trkpt lon="101.191822" lat="14.286655">
                <ele>45.799927</ele>
                <time>2011-07-30T07:09:44Z</time>
            </trkpt>
            <trkpt lon="101.191629" lat="14.288305">
                <ele>48.203369</ele>
                <time>2011-07-30T07:10:13Z</time>
            </trkpt>
            <trkpt lon="101.191131" lat="14.292453">
                <ele>46.280640</ele>
                <time>2011-07-30T07:11:40Z</time>
            </trkpt>
            <trkpt lon="101.191012" lat="14.292527">
                <ele>47.241821</ele>
                <time>2011-07-30T07:11:48Z</time>
            </trkpt>
            <trkpt lon="101.190558" lat="14.291939">
                <ele>37.148071</ele>
                <time>2011-07-30T07:12:16Z</time>
            </trkpt>
            <trkpt lon="101.190227" lat="14.291996">
                <ele>35.706055</ele>
                <time>2011-07-30T07:12:45Z</time>
            </trkpt>
            <trkpt lon="101.189847" lat="14.291609">
                <ele>33.302856</ele>
                <time>2011-07-30T07:13:09Z</time>
            </trkpt>
            <trkpt lon="101.189201" lat="14.292112">
                <ele>30.418823</ele>
                <time>2011-07-30T07:13:38Z</time>
            </trkpt>
            <trkpt lon="101.188914" lat="14.292645">
                <ele>30.418823</ele>
                <time>2011-07-30T07:13:54Z</time>
            </trkpt>
            <trkpt lon="101.188678" lat="14.292838">
                <ele>29.938110</ele>
                <time>2011-07-30T07:14:02Z</time>
            </trkpt>
            <trkpt lon="101.187890" lat="14.292753">
                <ele>31.380127</ele>
                <time>2011-07-30T07:14:23Z</time>
            </trkpt>
            <trkpt lon="101.187691" lat="14.292668">
                <ele>31.380127</ele>
                <time>2011-07-30T07:14:28Z</time>
            </trkpt>
            <trkpt lon="101.187284" lat="14.292682">
                <ele>31.380127</ele>
                <time>2011-07-30T07:14:38Z</time>
            </trkpt>
            <trkpt lon="101.187093" lat="14.292869">
                <ele>33.302856</ele>
                <time>2011-07-30T07:14:45Z</time>
            </trkpt>
            <trkpt lon="101.186794" lat="14.293399">
                <ele>33.783447</ele>
                <time>2011-07-30T07:15:02Z</time>
            </trkpt>
            <trkpt lon="101.186767" lat="14.293978">
                <ele>31.380127</ele>
                <time>2011-07-30T07:15:15Z</time>
            </trkpt>
            <trkpt lon="101.186999" lat="14.294308">
                <ele>31.860718</ele>
                <time>2011-07-30T07:15:23Z</time>
            </trkpt>
            <trkpt lon="101.187672" lat="14.294808">
                <ele>31.380127</ele>
                <time>2011-07-30T07:15:41Z</time>
            </trkpt>
            <trkpt lon="101.187521" lat="14.297459">
                <ele>34.264160</ele>
                <time>2011-07-30T07:16:48Z</time>
            </trkpt>
            <trkpt lon="101.187432" lat="14.297782">
                <ele>33.783447</ele>
                <time>2011-07-30T07:16:58Z</time>
            </trkpt>
            <trkpt lon="101.186130" lat="14.298278">
                <ele>33.783447</ele>
                <time>2011-07-30T07:17:47Z</time>
            </trkpt>
            <trkpt lon="101.184948" lat="14.299140">
                <ele>32.822266</ele>
                <time>2011-07-30T07:18:36Z</time>
            </trkpt>
            <trkpt lon="101.184145" lat="14.298917">
                <ele>31.860718</ele>
                <time>2011-07-30T07:18:55Z</time>
            </trkpt>
            <trkpt lon="101.183373" lat="14.298500">
                <ele>31.380127</ele>
                <time>2011-07-30T07:19:13Z</time>
            </trkpt>
            <trkpt lon="101.182636" lat="14.298370">
                <ele>31.380127</ele>
                <time>2011-07-30T07:19:27Z</time>
            </trkpt>
            <trkpt lon="101.182400" lat="14.298041">
                <ele>29.457520</ele>
                <time>2011-07-30T07:19:34Z</time>
            </trkpt>
            <trkpt lon="101.182294" lat="14.297520">
                <ele>28.976929</ele>
                <time>2011-07-30T07:19:42Z</time>
            </trkpt>
            <trkpt lon="101.181968" lat="14.297216">
                <ele>28.976929</ele>
                <time>2011-07-30T07:19:49Z</time>
            </trkpt>
            <trkpt lon="101.180274" lat="14.296771">
                <ele>27.054321</ele>
                <time>2011-07-30T07:20:21Z</time>
            </trkpt>
            <trkpt lon="101.180152" lat="14.294320">
                <ele>26.573608</ele>
                <time>2011-07-30T07:21:16Z</time>
            </trkpt>
            <trkpt lon="101.180101" lat="14.294907">
                <ele>28.496216</ele>
                <time>2011-07-30T07:22:00Z</time>
            </trkpt>
            <trkpt lon="101.179858" lat="14.295082">
                <ele>28.496216</ele>
                <time>2011-07-30T07:22:13Z</time>
            </trkpt>
            <trkpt lon="101.178072" lat="14.294804">
                <ele>27.534912</ele>
                <time>2011-07-30T07:22:53Z</time>
            </trkpt>
            <trkpt lon="101.177644" lat="14.294623">
                <ele>28.015503</ele>
                <time>2011-07-30T07:23:02Z</time>
            </trkpt>
            <trkpt lon="101.177422" lat="14.294641">
                <ele>28.496216</ele>
                <time>2011-07-30T07:23:08Z</time>
            </trkpt>
            <trkpt lon="101.176933" lat="14.295310">
                <ele>28.496216</ele>
                <time>2011-07-30T07:23:26Z</time>
            </trkpt>
            <trkpt lon="101.176270" lat="14.295089">
                <ele>26.092896</ele>
                <time>2011-07-30T07:23:38Z</time>
            </trkpt>
            <trkpt lon="101.175458" lat="14.295085">
                <ele>28.015503</ele>
                <time>2011-07-30T07:23:54Z</time>
            </trkpt>
            <trkpt lon="101.175397" lat="14.293714">
                <ele>27.534912</ele>
                <time>2011-07-30T07:24:23Z</time>
            </trkpt>
            <trkpt lon="101.175183" lat="14.293428">
                <ele>26.092896</ele>
                <time>2011-07-30T07:24:31Z</time>
            </trkpt>
            <trkpt lon="101.175209" lat="14.292729">
                <ele>26.092896</ele>
                <time>2011-07-30T07:24:48Z</time>
            </trkpt>
            <trkpt lon="101.175074" lat="14.292652">
                <ele>29.457520</ele>
                <time>2011-07-30T07:26:12Z</time>
            </trkpt>
            <trkpt lon="101.174840" lat="14.292642">
                <ele>27.054321</ele>
                <time>2011-07-30T07:27:18Z</time>
            </trkpt>
            <trkpt lon="101.175084" lat="14.292651">
                <ele>33.302856</ele>
                <time>2011-07-30T07:38:59Z</time>
            </trkpt>
            <trkpt lon="101.175010" lat="14.292409">
                <ele>30.899536</ele>
                <time>2011-07-30T07:39:34Z</time>
            </trkpt>
            <trkpt lon="101.174046" lat="14.292259">
                <ele>31.380127</ele>
                <time>2011-07-30T07:40:01Z</time>
            </trkpt>
            <trkpt lon="101.174066" lat="14.292155">
                <ele>31.380127</ele>
                <time>2011-07-30T07:40:04Z</time>
            </trkpt>
            <trkpt lon="101.174070" lat="14.291841">
                <ele>30.418823</ele>
                <time>2011-07-30T07:40:13Z</time>
            </trkpt>
            <trkpt lon="101.173767" lat="14.291657">
                <ele>29.938110</ele>
                <time>2011-07-30T07:40:25Z</time>
            </trkpt>
            <trkpt lon="101.168835" lat="14.291355">
                <ele>30.418823</ele>
                <time>2011-07-30T07:41:46Z</time>
            </trkpt>
            <trkpt lon="101.168574" lat="14.291519">
                <ele>31.860718</ele>
                <time>2011-07-30T07:41:53Z</time>
            </trkpt>
            <trkpt lon="101.168458" lat="14.292073">
                <ele>30.899536</ele>
                <time>2011-07-30T07:42:04Z</time>
            </trkpt>
            <trkpt lon="101.168160" lat="14.292480">
                <ele>30.899536</ele>
                <time>2011-07-30T07:42:13Z</time>
            </trkpt>
            <trkpt lon="101.167315" lat="14.292820">
                <ele>30.418823</ele>
                <time>2011-07-30T07:42:29Z</time>
            </trkpt>
            <trkpt lon="101.167142" lat="14.292825">
                <ele>29.938110</ele>
                <time>2011-07-30T07:42:32Z</time>
            </trkpt>
            <trkpt lon="101.166658" lat="14.292668">
                <ele>30.418823</ele>
                <time>2011-07-30T07:42:41Z</time>
            </trkpt>
            <trkpt lon="101.166298" lat="14.292316">
                <ele>29.938110</ele>
                <time>2011-07-30T07:42:50Z</time>
            </trkpt>
            <trkpt lon="101.166099" lat="14.291784">
                <ele>31.380127</ele>
                <time>2011-07-30T07:43:01Z</time>
            </trkpt>
            <trkpt lon="101.165634" lat="14.291684">
                <ele>31.860718</ele>
                <time>2011-07-30T07:43:16Z</time>
            </trkpt>
            <trkpt lon="101.165499" lat="14.291709">
                <ele>31.860718</ele>
                <time>2011-07-30T07:43:24Z</time>
            </trkpt>
            <trkpt lon="101.164310" lat="14.294945">
                <ele>33.302856</ele>
                <time>2011-07-30T07:44:49Z</time>
            </trkpt>
            <trkpt lon="101.163265" lat="14.296236">
                <ele>35.706055</ele>
                <time>2011-07-30T07:45:26Z</time>
            </trkpt>
            <trkpt lon="101.161965" lat="14.297846">
                <ele>37.148071</ele>
                <time>2011-07-30T07:46:16Z</time>
            </trkpt>
            <trkpt lon="101.159550" lat="14.300976">
                <ele>38.109375</ele>
                <time>2011-07-30T07:47:39Z</time>
            </trkpt>
            <trkpt lon="101.159459" lat="14.301287">
                <ele>38.109375</ele>
                <time>2011-07-30T07:47:44Z</time>
            </trkpt>
            <trkpt lon="101.159566" lat="14.301816">
                <ele>37.628662</ele>
                <time>2011-07-30T07:47:52Z</time>
            </trkpt>
            <trkpt lon="101.160130" lat="14.302637">
                <ele>38.590088</ele>
                <time>2011-07-30T07:48:11Z</time>
            </trkpt>
            <trkpt lon="101.159387" lat="14.303549">
                <ele>38.109375</ele>
                <time>2011-07-30T07:49:31Z</time>
            </trkpt>
            <trkpt lon="101.159289" lat="14.303602">
                <ele>37.628662</ele>
                <time>2011-07-30T07:49:39Z</time>
            </trkpt>
            <trkpt lon="101.158807" lat="14.303230">
                <ele>38.590088</ele>
                <time>2011-07-30T07:50:43Z</time>
            </trkpt>
            <trkpt lon="101.158182" lat="14.303410">
                <ele>39.551269</ele>
                <time>2011-07-30T07:51:20Z</time>
            </trkpt>
            <trkpt lon="101.157983" lat="14.303279">
                <ele>40.512817</ele>
                <time>2011-07-30T07:51:32Z</time>
            </trkpt>
            <trkpt lon="101.157588" lat="14.302325">
                <ele>40.993408</ele>
                <time>2011-07-30T07:52:20Z</time>
            </trkpt>
            <trkpt lon="101.155961" lat="14.302739">
                <ele>43.877319</ele>
                <time>2011-07-30T07:53:19Z</time>
            </trkpt>
            <trkpt lon="101.155877" lat="14.303774">
                <ele>45.319214</ele>
                <time>2011-07-30T07:54:53Z</time>
            </trkpt>
            <trkpt lon="101.156232" lat="14.304457">
                <ele>45.319214</ele>
                <time>2011-07-30T07:55:30Z</time>
            </trkpt>
            <trkpt lon="101.155897" lat="14.304751">
                <ele>46.761231</ele>
                <time>2011-07-30T07:55:54Z</time>
            </trkpt>
            <trkpt lon="101.155800" lat="14.304576">
                <ele>47.722534</ele>
                <time>2011-07-30T07:56:11Z</time>
            </trkpt>
            <trkpt lon="101.155407" lat="14.303228">
                <ele>43.877319</ele>
                <time>2011-07-30T07:56:53Z</time>
            </trkpt>
            <trkpt lon="101.155109" lat="14.303557">
                <ele>47.241821</ele>
                <time>2011-07-30T07:57:43Z</time>
            </trkpt>
            <trkpt lon="101.155060" lat="14.304315">
                <ele>52.048584</ele>
                <time>2011-07-30T07:58:57Z</time>
            </trkpt>
            <trkpt lon="101.155310" lat="14.304794">
                <ele>52.529175</ele>
                <time>2011-07-30T08:00:03Z</time>
            </trkpt>
            <trkpt lon="101.155258" lat="14.305060">
                <ele>53.490479</ele>
                <time>2011-07-30T08:00:46Z</time>
            </trkpt>
            <trkpt lon="101.155858" lat="14.305462">
                <ele>44.838623</ele>
                <time>2011-07-30T08:01:54Z</time>
            </trkpt>
            <trkpt lon="101.155966" lat="14.305704">
                <ele>46.280640</ele>
                <time>2011-07-30T08:02:27Z</time>
            </trkpt>
            <trkpt lon="101.155717" lat="14.307498">
                <ele>54.932373</ele>
                <time>2011-07-30T08:05:35Z</time>
            </trkpt>
            <trkpt lon="101.155934" lat="14.308675">
                <ele>62.622925</ele>
                <time>2011-07-30T08:08:57Z</time>
            </trkpt>
            <trkpt lon="101.155890" lat="14.309386">
                <ele>63.103638</ele>
                <time>2011-07-30T08:09:39Z</time>
            </trkpt>
            <trkpt lon="101.155998" lat="14.309522">
                <ele>65.026367</ele>
                <time>2011-07-30T08:09:56Z</time>
            </trkpt>
            <trkpt lon="101.156182" lat="14.309931">
                <ele>65.507080</ele>
                <time>2011-07-30T08:10:39Z</time>
            </trkpt>
            <trkpt lon="101.155793" lat="14.312417">
                <ele>69.832886</ele>
                <time>2011-07-30T08:13:33Z</time>
            </trkpt>
            <trkpt lon="101.155803" lat="14.312650">
                <ele>67.910278</ele>
                <time>2011-07-30T08:13:58Z</time>
            </trkpt>
            <trkpt lon="101.155393" lat="14.313382">
                <ele>71.755493</ele>
                <time>2011-07-30T08:14:50Z</time>
            </trkpt>
            <trkpt lon="101.155474" lat="14.313672">
                <ele>69.832886</ele>
                <time>2011-07-30T08:16:11Z</time>
            </trkpt>
            <trkpt lon="101.155092" lat="14.314725">
                <ele>71.755493</ele>
                <time>2011-07-30T08:17:24Z</time>
            </trkpt>
            <trkpt lon="101.155131" lat="14.315152">
                <ele>65.507080</ele>
                <time>2011-07-30T08:18:18Z</time>
            </trkpt>
            <trkpt lon="101.155941" lat="14.315562">
                <ele>57.335815</ele>
                <time>2011-07-30T08:18:58Z</time>
            </trkpt>
            <trkpt lon="101.156557" lat="14.315288">
                <ele>53.971191</ele>
                <time>2011-07-30T08:19:17Z</time>
            </trkpt>
            <trkpt lon="101.156941" lat="14.315446">
                <ele>58.777710</ele>
                <time>2011-07-30T08:20:47Z</time>
            </trkpt>
            <trkpt lon="101.157126" lat="14.315832">
                <ele>55.893799</ele>
                <time>2011-07-30T08:21:34Z</time>
            </trkpt>
            <trkpt lon="101.157429" lat="14.315841">
                <ele>55.893799</ele>
                <time>2011-07-30T08:21:54Z</time>
            </trkpt>
            <trkpt lon="101.157742" lat="14.315381">
                <ele>53.490479</ele>
                <time>2011-07-30T08:22:43Z</time>
            </trkpt>
            <trkpt lon="101.158713" lat="14.314789">
                <ele>52.529175</ele>
                <time>2011-07-30T08:23:56Z</time>
            </trkpt>
            <trkpt lon="101.159247" lat="14.314174">
                <ele>47.722534</ele>
                <time>2011-07-30T08:25:02Z</time>
            </trkpt>
            <trkpt lon="101.159561" lat="14.313965">
                <ele>47.722534</ele>
                <time>2011-07-30T08:25:18Z</time>
            </trkpt>
            <trkpt lon="101.159532" lat="14.313402">
                <ele>47.722534</ele>
                <time>2011-07-30T08:25:46Z</time>
            </trkpt>
            <trkpt lon="101.159286" lat="14.313289">
                <ele>48.683960</ele>
                <time>2011-07-30T08:26:29Z</time>
            </trkpt>
            <trkpt lon="101.159117" lat="14.313071">
                <ele>46.761231</ele>
                <time>2011-07-30T08:27:28Z</time>
            </trkpt>
            <trkpt lon="101.159293" lat="14.312714">
                <ele>46.280640</ele>
                <time>2011-07-30T08:29:09Z</time>
            </trkpt>
            <trkpt lon="101.159804" lat="14.312871">
                <ele>46.761231</ele>
                <time>2011-07-30T08:30:05Z</time>
            </trkpt>
            <trkpt lon="101.160049" lat="14.313057">
                <ele>44.838623</ele>
                <time>2011-07-30T08:30:18Z</time>
            </trkpt>
            <trkpt lon="101.160337" lat="14.312622">
                <ele>44.838623</ele>
                <time>2011-07-30T08:30:49Z</time>
            </trkpt>
            <trkpt lon="101.161007" lat="14.312220">
                <ele>45.319214</ele>
                <time>2011-07-30T08:31:51Z</time>
            </trkpt>
            <trkpt lon="101.161965" lat="14.311605">
                <ele>43.877319</ele>
                <time>2011-07-30T08:34:22Z</time>
            </trkpt>
            <trkpt lon="101.162077" lat="14.311467">
                <ele>42.916016</ele>
                <time>2011-07-30T08:34:30Z</time>
            </trkpt>
            <trkpt lon="101.162576" lat="14.311830">
                <ele>42.435425</ele>
                <time>2011-07-30T08:34:48Z</time>
            </trkpt>
            <trkpt lon="101.162545" lat="14.311939">
                <ele>43.877319</ele>
                <time>2011-07-30T08:35:07Z</time>
            </trkpt>
            <trkpt lon="101.162894" lat="14.311434">
                <ele>42.435425</ele>
                <time>2011-07-30T08:35:31Z</time>
            </trkpt>
            <trkpt lon="101.163966" lat="14.311472">
                <ele>41.473999</ele>
                <time>2011-07-30T08:36:12Z</time>
            </trkpt>
            <trkpt lon="101.164553" lat="14.311738">
                <ele>44.838623</ele>
                <time>2011-07-30T08:37:02Z</time>
            </trkpt>
            <trkpt lon="101.164534" lat="14.311466">
                <ele>42.916016</ele>
                <time>2011-07-30T08:37:13Z</time>
            </trkpt>
            <trkpt lon="101.164211" lat="14.311143">
                <ele>41.473999</ele>
                <time>2011-07-30T08:37:24Z</time>
            </trkpt>
            <trkpt lon="101.164798" lat="14.310321">
                <ele>39.551269</ele>
                <time>2011-07-30T08:37:46Z</time>
            </trkpt>
            <trkpt lon="101.164953" lat="14.310313">
                <ele>40.032105</ele>
                <time>2011-07-30T08:37:52Z</time>
            </trkpt>
            <trkpt lon="101.165267" lat="14.310792">
                <ele>41.473999</ele>
                <time>2011-07-30T08:38:08Z</time>
            </trkpt>
            <trkpt lon="101.165382" lat="14.311305">
                <ele>41.473999</ele>
                <time>2011-07-30T08:38:22Z</time>
            </trkpt>
            <trkpt lon="101.165684" lat="14.311564">
                <ele>44.838623</ele>
                <time>2011-07-30T08:38:43Z</time>
            </trkpt>
            <trkpt lon="101.165951" lat="14.311688">
                <ele>43.877319</ele>
                <time>2011-07-30T08:39:11Z</time>
            </trkpt>
            <trkpt lon="101.168402" lat="14.310808">
                <ele>45.799927</ele>
                <time>2011-07-30T08:40:34Z</time>
            </trkpt>
            <trkpt lon="101.168742" lat="14.311009">
                <ele>50.125977</ele>
                <time>2011-07-30T08:41:12Z</time>
            </trkpt>
            <trkpt lon="101.168944" lat="14.311026">
                <ele>50.125977</ele>
                <time>2011-07-30T08:42:08Z</time>
            </trkpt>
            <trkpt lon="101.169602" lat="14.310863">
                <ele>49.164551</ele>
                <time>2011-07-30T08:42:43Z</time>
            </trkpt>
            <trkpt lon="101.169949" lat="14.310976">
                <ele>50.125977</ele>
                <time>2011-07-30T08:43:04Z</time>
            </trkpt>
            <trkpt lon="101.171067" lat="14.310865">
                <ele>51.567871</ele>
                <time>2011-07-30T08:43:59Z</time>
            </trkpt>
            <trkpt lon="101.171370" lat="14.311505">
                <ele>57.335815</ele>
                <time>2011-07-30T08:45:16Z</time>
            </trkpt>
            <trkpt lon="101.171497" lat="14.311646">
                <ele>57.335815</ele>
                <time>2011-07-30T08:45:41Z</time>
            </trkpt>
            <trkpt lon="101.172111" lat="14.311657">
                <ele>51.567871</ele>
                <time>2011-07-30T08:46:10Z</time>
            </trkpt>
            <trkpt lon="101.172425" lat="14.311907">
                <ele>53.009766</ele>
                <time>2011-07-30T08:46:27Z</time>
            </trkpt>
            <trkpt lon="101.172510" lat="14.312231">
                <ele>53.490479</ele>
                <time>2011-07-30T08:46:44Z</time>
            </trkpt>
            <trkpt lon="101.172735" lat="14.312405">
                <ele>54.932373</ele>
                <time>2011-07-30T08:47:13Z</time>
            </trkpt>
            <trkpt lon="101.173050" lat="14.312414">
                <ele>54.932373</ele>
                <time>2011-07-30T08:47:51Z</time>
            </trkpt>
            <trkpt lon="101.173324" lat="14.312460">
                <ele>53.971191</ele>
                <time>2011-07-30T08:48:07Z</time>
            </trkpt>
            <trkpt lon="101.173960" lat="14.313433">
                <ele>56.855103</ele>
                <time>2011-07-30T08:49:18Z</time>
            </trkpt>
            <trkpt lon="101.174692" lat="14.313592">
                <ele>58.777710</ele>
                <time>2011-07-30T08:50:47Z</time>
            </trkpt>
            <trkpt lon="101.174900" lat="14.313692">
                <ele>59.258423</ele>
                <time>2011-07-30T08:50:59Z</time>
            </trkpt>
            <trkpt lon="101.176442" lat="14.314199">
                <ele>58.777710</ele>
                <time>2011-07-30T08:54:05Z</time>
            </trkpt>
            <trkpt lon="101.177255" lat="14.311904">
                <ele>51.087158</ele>
                <time>2011-07-30T08:55:02Z</time>
            </trkpt>
            <trkpt lon="101.178075" lat="14.312141">
                <ele>49.645264</ele>
                <time>2011-07-30T08:55:37Z</time>
            </trkpt>
            <trkpt lon="101.179087" lat="14.311420">
                <ele>49.645264</ele>
                <time>2011-07-30T08:56:13Z</time>
            </trkpt>
            <trkpt lon="101.179395" lat="14.311194">
                <ele>48.203369</ele>
                <time>2011-07-30T08:56:24Z</time>
            </trkpt>
            <trkpt lon="101.178971" lat="14.309897">
                <ele>44.838623</ele>
                <time>2011-07-30T08:57:04Z</time>
            </trkpt>
            <trkpt lon="101.179515" lat="14.309769">
                <ele>45.319214</ele>
                <time>2011-07-30T08:58:38Z</time>
            </trkpt>
            <trkpt lon="101.180712" lat="14.310248">
                <ele>48.203369</ele>
                <time>2011-07-30T09:00:02Z</time>
            </trkpt>
            <trkpt lon="101.181030" lat="14.310412">
                <ele>46.280640</ele>
                <time>2011-07-30T09:02:19Z</time>
            </trkpt>
            <trkpt lon="101.182703" lat="14.309386">
                <ele>47.722534</ele>
                <time>2011-07-30T09:03:36Z</time>
            </trkpt>
            <trkpt lon="101.183007" lat="14.308902">
                <ele>46.761231</ele>
                <time>2011-07-30T09:04:05Z</time>
            </trkpt>
            <trkpt lon="101.181718" lat="14.307345">
                <ele>41.473999</ele>
                <time>2011-07-30T09:05:49Z</time>
            </trkpt>
            <trkpt lon="101.181495" lat="14.306212">
                <ele>41.473999</ele>
                <time>2011-07-30T09:07:17Z</time>
            </trkpt>
            <trkpt lon="101.181783" lat="14.305400">
                <ele>40.032105</ele>
                <time>2011-07-30T09:07:49Z</time>
            </trkpt>
            <trkpt lon="101.181889" lat="14.305239">
                <ele>39.551269</ele>
                <time>2011-07-30T09:07:56Z</time>
            </trkpt>
            <trkpt lon="101.181838" lat="14.304911">
                <ele>40.512817</ele>
                <time>2011-07-30T09:08:46Z</time>
            </trkpt>
            <trkpt lon="101.181898" lat="14.305195">
                <ele>40.512817</ele>
                <time>2011-07-30T09:09:05Z</time>
            </trkpt>
            <trkpt lon="101.181561" lat="14.306105">
                <ele>40.032105</ele>
                <time>2011-07-30T09:09:48Z</time>
            </trkpt>
            <trkpt lon="101.181353" lat="14.306213">
                <ele>40.032105</ele>
                <time>2011-07-30T09:10:04Z</time>
            </trkpt>
            <trkpt lon="101.180830" lat="14.306026">
                <ele>38.109375</ele>
                <time>2011-07-30T09:10:33Z</time>
            </trkpt>
            <trkpt lon="101.180122" lat="14.305456">
                <ele>36.186768</ele>
                <time>2011-07-30T09:11:15Z</time>
            </trkpt>
            <trkpt lon="101.179881" lat="14.305317">
                <ele>35.225464</ele>
                <time>2011-07-30T09:11:25Z</time>
            </trkpt>
            <trkpt lon="101.179132" lat="14.305020">
                <ele>35.706055</ele>
                <time>2011-07-30T09:12:25Z</time>
            </trkpt>
            <trkpt lon="101.178972" lat="14.304932">
                <ele>35.225464</ele>
                <time>2011-07-30T09:12:41Z</time>
            </trkpt>
            <trkpt lon="101.178901" lat="14.304640">
                <ele>35.225464</ele>
                <time>2011-07-30T09:13:23Z</time>
            </trkpt>
            <trkpt lon="101.179914" lat="14.300755">
                <ele>30.418823</ele>
                <time>2011-07-30T09:14:59Z</time>
            </trkpt>
            <trkpt lon="101.179641" lat="14.299682">
                <ele>29.457520</ele>
                <time>2011-07-30T09:15:27Z</time>
            </trkpt>
            <trkpt lon="101.177600" lat="14.299475">
                <ele>29.938110</ele>
                <time>2011-07-30T09:16:09Z</time>
            </trkpt>
            <trkpt lon="101.177324" lat="14.299649">
                <ele>27.534912</ele>
                <time>2011-07-30T09:16:18Z</time>
            </trkpt>
            <trkpt lon="101.175866" lat="14.299534">
                <ele>27.534912</ele>
                <time>2011-07-30T09:16:45Z</time>
            </trkpt>
            <trkpt lon="101.175365" lat="14.299498">
                <ele>26.573608</ele>
                <time>2011-07-30T09:16:54Z</time>
            </trkpt>
            <trkpt lon="101.172513" lat="14.297461">
                <ele>27.054321</ele>
                <time>2011-07-30T09:18:04Z</time>
            </trkpt>
            <trkpt lon="101.173736" lat="14.295837">
                <ele>25.131714</ele>
                <time>2011-07-30T09:18:48Z</time>
            </trkpt>
            <trkpt lon="101.174080" lat="14.292055">
                <ele>24.651001</ele>
                <time>2011-07-30T09:20:18Z</time>
            </trkpt>
            <trkpt lon="101.174089" lat="14.292322">
                <ele>24.170288</ele>
                <time>2011-07-30T09:20:30Z</time>
            </trkpt>
            <trkpt lon="101.174855" lat="14.292438">
                <ele>24.170288</ele>
                <time>2011-07-30T09:20:55Z</time>
            </trkpt>
            <trkpt lon="101.175029" lat="14.292625">
                <ele>25.131714</ele>
                <time>2011-07-30T09:21:09Z</time>
            </trkpt>
            <trkpt lon="101.175061" lat="14.292658">
                <ele>24.170288</ele>
                <time>2011-07-30T09:21:30Z</time>
            </trkpt>
            <trkpt lon="101.175008" lat="14.292577">
                <ele>23.689575</ele>
                <time>2011-07-30T09:33:03Z</time>
            </trkpt>
            <trkpt lon="101.175195" lat="14.292568">
                <ele>22.247559</ele>
                <time>2011-07-30T09:33:39Z</time>
            </trkpt>
            <trkpt lon="101.175272" lat="14.291940">
                <ele>22.247559</ele>
                <time>2011-07-30T09:34:01Z</time>
            </trkpt>
            <trkpt lon="101.177661" lat="14.292118">
                <ele>22.728272</ele>
                <time>2011-07-30T09:34:55Z</time>
            </trkpt>
            <trkpt lon="101.178129" lat="14.292030">
                <ele>22.247559</ele>
                <time>2011-07-30T09:35:06Z</time>
            </trkpt>
            <trkpt lon="101.178768" lat="14.287297">
                <ele>20.324951</ele>
                <time>2011-07-30T09:36:36Z</time>
            </trkpt>
            <trkpt lon="101.178914" lat="14.287215">
                <ele>20.805664</ele>
                <time>2011-07-30T09:36:40Z</time>
            </trkpt>
            <trkpt lon="101.180021" lat="14.287346">
                <ele>19.844360</ele>
                <time>2011-07-30T09:37:01Z</time>
            </trkpt>
            <trkpt lon="101.187102" lat="14.285112">
                <ele>25.612305</ele>
                <time>2011-07-30T09:39:30Z</time>
            </trkpt>
            <trkpt lon="101.187653" lat="14.285207">
                <ele>27.534912</ele>
                <time>2011-07-30T09:39:47Z</time>
            </trkpt>
            <trkpt lon="101.187886" lat="14.285632">
                <ele>27.054321</ele>
                <time>2011-07-30T09:40:01Z</time>
            </trkpt>
            <trkpt lon="101.188175" lat="14.285828">
                <ele>26.573608</ele>
                <time>2011-07-30T09:40:09Z</time>
            </trkpt>
            <trkpt lon="101.191037" lat="14.286947">
                <ele>28.015503</ele>
                <time>2011-07-30T09:41:20Z</time>
            </trkpt>
            <trkpt lon="101.191174" lat="14.287420">
                <ele>29.938110</ele>
                <time>2011-07-30T09:41:36Z</time>
            </trkpt>
            <trkpt lon="101.190695" lat="14.290127">
                <ele>24.651001</ele>
                <time>2011-07-30T09:42:27Z</time>
            </trkpt>
            <trkpt lon="101.190447" lat="14.290776">
                <ele>26.573608</ele>
                <time>2011-07-30T09:43:16Z</time>
            </trkpt>
            <trkpt lon="101.190420" lat="14.290781">
                <ele>26.092896</ele>
                <time>2011-07-30T09:45:07Z</time>
            </trkpt>
            <trkpt lon="101.190393" lat="14.291639">
                <ele>28.015503</ele>
                <time>2011-07-30T09:47:00Z</time>
            </trkpt>
            <trkpt lon="101.190701" lat="14.291901">
                <ele>30.899536</ele>
                <time>2011-07-30T09:47:45Z</time>
            </trkpt>
            <trkpt lon="101.191054" lat="14.292519">
                <ele>39.551269</ele>
                <time>2011-07-30T09:48:56Z</time>
            </trkpt>
            <trkpt lon="101.191111" lat="14.292528">
                <ele>39.551269</ele>
                <time>2011-07-30T09:49:09Z</time>
            </trkpt>
            <trkpt lon="101.191898" lat="14.286486">
                <ele>40.512817</ele>
                <time>2011-07-30T09:51:29Z</time>
            </trkpt>
            <trkpt lon="101.192373" lat="14.286538">
                <ele>40.993408</ele>
                <time>2011-07-30T09:51:48Z</time>
            </trkpt>
            <trkpt lon="101.192751" lat="14.286415">
                <ele>43.877319</ele>
                <time>2011-07-30T09:51:59Z</time>
            </trkpt>
            <trkpt lon="101.193961" lat="14.286535">
                <ele>40.512817</ele>
                <time>2011-07-30T09:52:23Z</time>
            </trkpt>
            <trkpt lon="101.194976" lat="14.287112">
                <ele>40.512817</ele>
                <time>2011-07-30T09:52:44Z</time>
            </trkpt>
            <trkpt lon="101.196632" lat="14.286906">
                <ele>38.590088</ele>
                <time>2011-07-30T09:53:13Z</time>
            </trkpt>
            <trkpt lon="101.197339" lat="14.287119">
                <ele>39.551269</ele>
                <time>2011-07-30T09:53:26Z</time>
            </trkpt>
            <trkpt lon="101.197795" lat="14.287224">
                <ele>38.109375</ele>
                <time>2011-07-30T09:53:34Z</time>
            </trkpt>
            <trkpt lon="101.198244" lat="14.287622">
                <ele>37.148071</ele>
                <time>2011-07-30T09:53:44Z</time>
            </trkpt>
            <trkpt lon="101.198723" lat="14.287750">
                <ele>35.706055</ele>
                <time>2011-07-30T09:53:51Z</time>
            </trkpt>
            <trkpt lon="101.202471" lat="14.287453">
                <ele>28.015503</ele>
                <time>2011-07-30T09:54:44Z</time>
            </trkpt>
            <trkpt lon="101.205824" lat="14.287897">
                <ele>23.689575</ele>
                <time>2011-07-30T09:55:34Z</time>
            </trkpt>
            <trkpt lon="101.207611" lat="14.287420">
                <ele>22.728272</ele>
                <time>2011-07-30T09:56:04Z</time>
            </trkpt>
            <trkpt lon="101.210100" lat="14.285931">
                <ele>24.170288</ele>
                <time>2011-07-30T09:56:54Z</time>
            </trkpt>
            <trkpt lon="101.211200" lat="14.287262">
                <ele>23.689575</ele>
                <time>2011-07-30T09:57:26Z</time>
            </trkpt>
            <trkpt lon="101.210564" lat="14.287395">
                <ele>22.728272</ele>
                <time>2011-07-30T09:57:47Z</time>
            </trkpt>
            <trkpt lon="101.210617" lat="14.287865">
                <ele>23.208984</ele>
                <time>2011-07-30T09:57:57Z</time>
            </trkpt>
            <trkpt lon="101.211192" lat="14.287621">
                <ele>23.689575</ele>
                <time>2011-07-30T09:58:12Z</time>
            </trkpt>
            <trkpt lon="101.211413" lat="14.287747">
                <ele>23.208984</ele>
                <time>2011-07-30T09:58:17Z</time>
            </trkpt>
            <trkpt lon="101.211564" lat="14.288581">
                <ele>23.689575</ele>
                <time>2011-07-30T09:58:36Z</time>
            </trkpt>
            <trkpt lon="101.211102" lat="14.288824">
                <ele>23.208984</ele>
                <time>2011-07-30T09:58:48Z</time>
            </trkpt>
            <trkpt lon="101.210625" lat="14.289339">
                <ele>22.728272</ele>
                <time>2011-07-30T09:59:01Z</time>
            </trkpt>
            <trkpt lon="101.210629" lat="14.289517">
                <ele>23.689575</ele>
                <time>2011-07-30T09:59:05Z</time>
            </trkpt>
            <trkpt lon="101.211381" lat="14.289669">
                <ele>23.208984</ele>
                <time>2011-07-30T09:59:19Z</time>
            </trkpt>
            <trkpt lon="101.211592" lat="14.290194">
                <ele>22.728272</ele>
                <time>2011-07-30T09:59:29Z</time>
            </trkpt>
            <trkpt lon="101.211323" lat="14.290605">
                <ele>23.208984</ele>
                <time>2011-07-30T09:59:37Z</time>
            </trkpt>
            <trkpt lon="101.211423" lat="14.291631">
                <ele>22.728272</ele>
                <time>2011-07-30T09:59:55Z</time>
            </trkpt>
            <trkpt lon="101.211323" lat="14.292095">
                <ele>23.208984</ele>
                <time>2011-07-30T10:00:04Z</time>
            </trkpt>
            <trkpt lon="101.210830" lat="14.292643">
                <ele>23.208984</ele>
                <time>2011-07-30T10:00:17Z</time>
            </trkpt>
            <trkpt lon="101.210825" lat="14.292855">
                <ele>23.689575</ele>
                <time>2011-07-30T10:00:22Z</time>
            </trkpt>
            <trkpt lon="101.213024" lat="14.295804">
                <ele>22.728272</ele>
                <time>2011-07-30T10:01:20Z</time>
            </trkpt>
            <trkpt lon="101.213460" lat="14.296876">
                <ele>22.728272</ele>
                <time>2011-07-30T10:01:40Z</time>
            </trkpt>
            <trkpt lon="101.214112" lat="14.298339">
                <ele>21.286377</ele>
                <time>2011-07-30T10:02:06Z</time>
            </trkpt>
            <trkpt lon="101.214898" lat="14.298638">
                <ele>21.766968</ele>
                <time>2011-07-30T10:02:21Z</time>
            </trkpt>
            <trkpt lon="101.214936" lat="14.298764">
                <ele>22.728272</ele>
                <time>2011-07-30T10:02:25Z</time>
            </trkpt>
            <trkpt lon="101.214474" lat="14.298770">
                <ele>22.728272</ele>
                <time>2011-07-30T10:02:37Z</time>
            </trkpt>
            <trkpt lon="101.213218" lat="14.299783">
                <ele>22.728272</ele>
                <time>2011-07-30T10:03:08Z</time>
            </trkpt>
            <trkpt lon="101.212461" lat="14.300031">
                <ele>22.728272</ele>
                <time>2011-07-30T10:03:23Z</time>
            </trkpt>
            <trkpt lon="101.211029" lat="14.300002">
                <ele>23.208984</ele>
                <time>2011-07-30T10:03:46Z</time>
            </trkpt>
            <trkpt lon="101.210581" lat="14.301612">
                <ele>22.728272</ele>
                <time>2011-07-30T10:04:15Z</time>
            </trkpt>
            <trkpt lon="101.210360" lat="14.301885">
                <ele>23.689575</ele>
                <time>2011-07-30T10:04:21Z</time>
            </trkpt>
            <trkpt lon="101.210152" lat="14.301922">
                <ele>24.651001</ele>
                <time>2011-07-30T10:04:25Z</time>
            </trkpt>
            <trkpt lon="101.209146" lat="14.301923">
                <ele>23.689575</ele>
                <time>2011-07-30T10:04:43Z</time>
            </trkpt>
            <trkpt lon="101.208875" lat="14.301983">
                <ele>24.170288</ele>
                <time>2011-07-30T10:04:48Z</time>
            </trkpt>
            <trkpt lon="101.208664" lat="14.302201">
                <ele>25.131714</ele>
                <time>2011-07-30T10:04:54Z</time>
            </trkpt>
            <trkpt lon="101.208250" lat="14.304801">
                <ele>26.092896</ele>
                <time>2011-07-30T10:05:45Z</time>
            </trkpt>
            <trkpt lon="101.208613" lat="14.305858">
                <ele>26.573608</ele>
                <time>2011-07-30T10:06:07Z</time>
            </trkpt>
            <trkpt lon="101.208607" lat="14.306644">
                <ele>27.054321</ele>
                <time>2011-07-30T10:06:23Z</time>
            </trkpt>
            <trkpt lon="101.208496" lat="14.306700">
                <ele>28.015503</ele>
                <time>2011-07-30T10:06:27Z</time>
            </trkpt>
            <trkpt lon="101.205941" lat="14.306482">
                <ele>27.054321</ele>
                <time>2011-07-30T10:07:16Z</time>
            </trkpt>
            <trkpt lon="101.205706" lat="14.306350">
                <ele>27.054321</ele>
                <time>2011-07-30T10:07:21Z</time>
            </trkpt>
            <trkpt lon="101.204985" lat="14.305223">
                <ele>27.054321</ele>
                <time>2011-07-30T10:07:45Z</time>
            </trkpt>
            <trkpt lon="101.204501" lat="14.304841">
                <ele>27.054321</ele>
                <time>2011-07-30T10:07:57Z</time>
            </trkpt>
            <trkpt lon="101.204224" lat="14.304648">
                <ele>25.612305</ele>
                <time>2011-07-30T10:08:05Z</time>
            </trkpt>
            <trkpt lon="101.203596" lat="14.305160">
                <ele>27.054321</ele>
                <time>2011-07-30T10:08:25Z</time>
            </trkpt>
            <trkpt lon="101.203299" lat="14.305351">
                <ele>26.573608</ele>
                <time>2011-07-30T10:08:35Z</time>
            </trkpt>
            <trkpt lon="101.203623" lat="14.306575">
                <ele>28.015503</ele>
                <time>2011-07-30T10:09:10Z</time>
            </trkpt>
            <trkpt lon="101.203492" lat="14.307424">
                <ele>28.015503</ele>
                <time>2011-07-30T10:09:30Z</time>
            </trkpt>
            <trkpt lon="101.203968" lat="14.308958">
                <ele>30.418823</ele>
                <time>2011-07-30T10:10:00Z</time>
            </trkpt>
            <trkpt lon="101.203448" lat="14.309831">
                <ele>31.860718</ele>
                <time>2011-07-30T10:10:21Z</time>
            </trkpt>
            <trkpt lon="101.203451" lat="14.311351">
                <ele>33.302856</ele>
                <time>2011-07-30T10:10:54Z</time>
            </trkpt>
            <trkpt lon="101.203123" lat="14.312467">
                <ele>36.186768</ele>
                <time>2011-07-30T10:11:21Z</time>
            </trkpt>
            <trkpt lon="101.203025" lat="14.312787">
                <ele>34.264160</ele>
                <time>2011-07-30T10:11:32Z</time>
            </trkpt>
            <trkpt lon="101.203165" lat="14.312983">
                <ele>34.264160</ele>
                <time>2011-07-30T10:11:37Z</time>
            </trkpt>
            <trkpt lon="101.203412" lat="14.313052">
                <ele>35.225464</ele>
                <time>2011-07-30T10:11:42Z</time>
            </trkpt>
            <trkpt lon="101.203528" lat="14.313255">
                <ele>35.225464</ele>
                <time>2011-07-30T10:11:47Z</time>
            </trkpt>
            <trkpt lon="101.203449" lat="14.314009">
                <ele>37.148071</ele>
                <time>2011-07-30T10:12:04Z</time>
            </trkpt>
            <trkpt lon="101.203659" lat="14.314366">
                <ele>37.628662</ele>
                <time>2011-07-30T10:12:14Z</time>
            </trkpt>
            <trkpt lon="101.203727" lat="14.315355">
                <ele>38.590088</ele>
                <time>2011-07-30T10:12:36Z</time>
            </trkpt>
            <trkpt lon="101.204003" lat="14.316052">
                <ele>39.070679</ele>
                <time>2011-07-30T10:12:52Z</time>
            </trkpt>
            <trkpt lon="101.203917" lat="14.316259">
                <ele>39.551269</ele>
                <time>2011-07-30T10:12:57Z</time>
            </trkpt>
            <trkpt lon="101.203568" lat="14.316509">
                <ele>40.032105</ele>
                <time>2011-07-30T10:13:07Z</time>
            </trkpt>
            <trkpt lon="101.203433" lat="14.316472">
                <ele>40.032105</ele>
                <time>2011-07-30T10:13:11Z</time>
            </trkpt>
            <trkpt lon="101.202736" lat="14.315238">
                <ele>40.512817</ele>
                <time>2011-07-30T10:13:48Z</time>
            </trkpt>
            <trkpt lon="101.202145" lat="14.316107">
                <ele>40.993408</ele>
                <time>2011-07-30T10:14:15Z</time>
            </trkpt>
            <trkpt lon="101.202363" lat="14.317404">
                <ele>42.435425</ele>
                <time>2011-07-30T10:14:51Z</time>
            </trkpt>
            <trkpt lon="101.201773" lat="14.318556">
                <ele>44.838623</ele>
                <time>2011-07-30T10:15:28Z</time>
            </trkpt>
            <trkpt lon="101.202692" lat="14.321067">
                <ele>48.683960</ele>
                <time>2011-07-30T10:16:33Z</time>
            </trkpt>
            <trkpt lon="101.202204" lat="14.323106">
                <ele>52.048584</ele>
                <time>2011-07-30T10:17:20Z</time>
            </trkpt>
            <trkpt lon="101.202153" lat="14.324256">
                <ele>53.971191</ele>
                <time>2011-07-30T10:17:45Z</time>
            </trkpt>
            <trkpt lon="101.202257" lat="14.324555">
                <ele>54.932373</ele>
                <time>2011-07-30T10:17:54Z</time>
            </trkpt>
            <trkpt lon="101.200397" lat="14.326869">
                <ele>56.855103</ele>
                <time>2011-07-30T10:18:56Z</time>
            </trkpt>
            <trkpt lon="101.197586" lat="14.330132">
                <ele>56.855103</ele>
                <time>2011-07-30T10:20:19Z</time>
            </trkpt>
            <trkpt lon="101.192644" lat="14.335222">
                <ele>53.971191</ele>
                <time>2011-07-30T10:22:07Z</time>
            </trkpt>
            <trkpt lon="101.189691" lat="14.333035">
                <ele>53.490479</ele>
                <time>2011-07-30T10:23:05Z</time>
            </trkpt>
            <trkpt lon="101.189005" lat="14.332830">
                <ele>55.413086</ele>
                <time>2011-07-30T10:23:18Z</time>
            </trkpt>
        </trkseg>
    </trk>
</gpx>